createdAt,value
2019-04-29T00:00:34.308Z,0.00
2019-04-29T00:02:34.267Z,0.00
2019-04-29T00:03:34.251Z,0.00
2019-04-29T00:04:34.225Z,0.00
2019-04-29T00:05:34.206Z,0.00
2019-04-29T00:06:34.185Z,0.00
2019-04-29T00:07:34.176Z,0.00
2019-04-29T00:08:34.146Z,0.00
2019-04-29T00:09:34.132Z,0.00
2019-04-29T00:10:34.108Z,0.00
2019-04-29T00:11:34.086Z,0.00
2019-04-29T00:12:34.073Z,0.00
2019-04-29T00:13:34.047Z,0.00
2019-04-29T00:14:34.028Z,0.00
2019-04-29T00:15:34.006Z,0.00
2019-04-29T00:16:33.986Z,0.00
2019-04-29T00:17:33.977Z,0.00
2019-04-29T00:18:33.944Z,0.00
2019-04-29T00:19:36.213Z,0.00
2019-04-29T00:20:33.916Z,0.00
2019-04-29T00:21:33.887Z,0.00
2019-04-29T00:22:33.871Z,0.00
2019-04-29T00:23:33.844Z,0.00
2019-04-29T00:24:33.823Z,0.00
2019-04-29T00:25:33.804Z,0.00
2019-04-29T00:26:33.788Z,0.00
2019-04-29T00:27:33.768Z,0.00
2019-04-29T00:28:33.749Z,0.00
2019-04-29T00:29:33.729Z,0.00
2019-04-29T00:30:33.926Z,0.00
2019-04-29T00:31:33.687Z,0.00
2019-04-29T00:32:33.674Z,0.00
2019-04-29T00:33:33.647Z,0.00
2019-04-29T00:34:33.627Z,0.00
2019-04-29T00:35:33.609Z,0.00
2019-04-29T00:36:33.588Z,0.00
2019-04-29T00:37:33.564Z,0.00
2019-04-29T00:38:33.550Z,0.00
2019-04-29T00:39:33.531Z,0.00
2019-04-29T00:40:33.506Z,0.00
2019-04-29T00:41:33.486Z,0.00
2019-04-29T00:42:33.475Z,0.00
2019-04-29T00:43:33.455Z,0.00
2019-04-29T00:44:33.426Z,0.00
2019-04-29T00:45:33.414Z,0.00
2019-04-29T00:46:33.386Z,0.00
2019-04-29T00:47:33.368Z,0.00
2019-04-29T00:48:33.349Z,0.00
2019-04-29T00:49:33.327Z,0.00
2019-04-29T00:50:33.306Z,0.00
2019-04-29T00:51:33.288Z,0.00
2019-04-29T00:52:33.278Z,0.00
2019-04-29T00:53:33.246Z,0.00
2019-04-29T00:54:33.226Z,0.00
2019-04-29T00:55:33.211Z,0.00
2019-04-29T00:56:33.188Z,0.00
2019-04-29T00:57:33.166Z,0.00
2019-04-29T00:58:33.148Z,0.00
2019-04-29T00:59:33.130Z,0.00
2019-04-29T01:00:33.109Z,0.00
2019-04-29T01:01:33.093Z,0.00
2019-04-29T01:02:33.066Z,0.00
2019-04-29T01:03:33.048Z,0.00
2019-04-29T01:04:33.027Z,0.00
2019-04-29T01:05:33.014Z,0.00
2019-04-29T01:06:32.987Z,0.00
2019-04-29T01:07:32.968Z,0.00
2019-04-29T01:08:32.950Z,0.00
2019-04-29T01:09:32.926Z,0.00
2019-04-29T01:10:32.907Z,0.00
2019-04-29T01:11:32.896Z,0.00
2019-04-29T01:12:32.867Z,0.00
2019-04-29T01:13:32.849Z,0.00
2019-04-29T01:14:32.834Z,0.00
2019-04-29T01:15:32.821Z,0.00
2019-04-29T01:16:32.794Z,0.00
2019-04-29T01:17:32.773Z,0.00
2019-04-29T01:18:32.752Z,0.00
2019-04-29T01:19:32.767Z,0.00
2019-04-29T01:20:32.705Z,0.00
2019-04-29T01:21:32.688Z,0.00
2019-04-29T01:22:32.667Z,0.00
2019-04-29T01:23:32.656Z,0.00
2019-04-29T01:24:32.624Z,0.00
2019-04-29T01:25:32.611Z,0.00
2019-04-29T01:26:32.582Z,0.00
2019-04-29T01:27:32.565Z,0.00
2019-04-29T01:28:32.544Z,0.00
2019-04-29T01:29:32.527Z,0.00
2019-04-29T01:30:32.502Z,0.00
2019-04-29T01:31:32.485Z,0.00
2019-04-29T01:32:32.471Z,0.00
2019-04-29T01:33:32.444Z,0.00
2019-04-29T01:34:32.436Z,0.00
2019-04-29T01:35:32.402Z,0.00
2019-04-29T01:36:32.384Z,0.00
2019-04-29T01:37:32.361Z,0.00
2019-04-29T01:38:32.344Z,0.00
2019-04-29T01:39:32.334Z,0.00
2019-04-29T01:40:32.306Z,0.00
2019-04-29T01:41:32.279Z,0.00
2019-04-29T01:42:32.265Z,0.00
2019-04-29T01:43:32.246Z,0.00
2019-04-29T01:44:32.221Z,0.00
2019-04-29T01:45:32.199Z,0.00
2019-04-29T01:46:32.186Z,0.00
2019-04-29T01:47:32.161Z,0.00
2019-04-29T01:48:32.141Z,0.00
2019-04-29T01:49:32.120Z,0.00
2019-04-29T01:50:32.098Z,0.00
2019-04-29T01:51:32.090Z,0.00
2019-04-29T01:52:32.064Z,0.00
2019-04-29T01:53:32.037Z,0.00
2019-04-29T01:54:32.020Z,0.00
2019-04-29T01:55:32.008Z,0.00
2019-04-29T01:56:31.986Z,0.00
2019-04-29T01:57:31.960Z,0.00
2019-04-29T01:58:31.939Z,0.00
2019-04-29T01:59:31.917Z,0.00
2019-04-29T02:00:31.898Z,0.00
2019-04-29T02:01:31.878Z,0.00
2019-04-29T02:02:31.857Z,0.00
2019-04-29T02:03:31.846Z,0.00
2019-04-29T02:04:31.823Z,0.00
2019-04-29T02:05:31.798Z,0.00
2019-04-29T02:06:31.785Z,0.00
2019-04-29T02:07:31.757Z,0.00
2019-04-29T02:08:31.737Z,0.00
2019-04-29T02:09:31.715Z,0.00
2019-04-29T02:10:31.696Z,0.00
2019-04-29T02:11:31.679Z,0.00
2019-04-29T02:12:31.657Z,0.00
2019-04-29T02:13:31.637Z,0.00
2019-04-29T02:14:31.615Z,0.00
2019-04-29T02:15:31.593Z,0.00
2019-04-29T02:16:31.570Z,0.00
2019-04-29T02:17:31.550Z,0.00
2019-04-29T02:18:31.536Z,0.00
2019-04-29T02:19:31.514Z,0.00
2019-04-29T02:20:31.492Z,0.00
2019-04-29T02:21:31.475Z,0.00
2019-04-29T02:22:31.452Z,0.00
2019-04-29T02:23:31.429Z,0.00
2019-04-29T02:24:31.413Z,0.00
2019-04-29T02:25:31.388Z,0.00
2019-04-29T02:26:31.370Z,0.00
2019-04-29T02:27:31.349Z,0.00
2019-04-29T02:28:31.327Z,0.00
2019-04-29T02:29:31.307Z,0.00
2019-04-29T02:30:31.304Z,0.00
2019-04-29T02:31:31.267Z,0.00
2019-04-29T02:32:31.249Z,0.00
2019-04-29T02:33:31.231Z,0.00
2019-04-29T02:34:31.205Z,0.00
2019-04-29T02:35:31.186Z,0.00
2019-04-29T02:36:31.173Z,0.00
2019-04-29T02:37:31.147Z,0.00
2019-04-29T02:38:31.124Z,0.00
2019-04-29T02:39:31.107Z,0.00
2019-04-29T02:40:31.082Z,0.00
2019-04-29T02:41:31.100Z,0.00
2019-04-29T02:42:31.040Z,0.00
2019-04-29T02:43:31.022Z,0.00
2019-04-29T02:44:30.999Z,0.00
2019-04-29T02:45:30.980Z,0.00
2019-04-29T02:46:30.959Z,0.00
2019-04-29T02:47:30.938Z,0.00
2019-04-29T02:48:34.487Z,0.00
2019-04-29T02:49:30.898Z,0.00
2019-04-29T02:50:30.878Z,0.00
2019-04-29T02:51:30.859Z,0.00
2019-04-29T02:52:30.834Z,0.00
2019-04-29T02:53:30.812Z,0.00
2019-04-29T02:54:30.792Z,0.00
2019-04-29T02:55:30.773Z,0.00
2019-04-29T02:56:30.753Z,0.00
2019-04-29T02:57:30.745Z,0.00
2019-04-29T02:58:30.713Z,0.00
2019-04-29T02:59:30.692Z,0.00
2019-04-29T03:00:30.675Z,0.00
2019-04-29T03:01:30.651Z,0.00
2019-04-29T03:02:30.632Z,0.00
2019-04-29T03:03:30.607Z,0.00
2019-04-29T03:04:30.593Z,0.00
2019-04-29T03:05:30.566Z,0.00
2019-04-29T03:06:30.557Z,0.00
2019-04-29T03:07:30.528Z,0.00
2019-04-29T03:08:30.506Z,0.00
2019-04-29T03:09:30.485Z,0.00
2019-04-29T03:10:30.465Z,0.00
2019-04-29T03:11:30.447Z,0.00
2019-04-29T03:12:30.428Z,0.00
2019-04-29T03:13:30.404Z,0.00
2019-04-29T03:14:30.401Z,0.00
2019-04-29T03:15:30.361Z,0.00
2019-04-29T03:16:30.343Z,0.00
2019-04-29T03:17:30.319Z,0.00
2019-04-29T03:18:30.297Z,0.00
2019-04-29T03:19:30.278Z,0.00
2019-04-29T03:20:30.258Z,0.00
2019-04-29T03:21:30.246Z,0.00
2019-04-29T03:22:30.225Z,0.00
2019-04-29T03:23:30.200Z,0.00
2019-04-29T03:24:30.178Z,0.00
2019-04-29T03:25:30.153Z,0.00
2019-04-29T03:26:30.141Z,0.00
2019-04-29T03:27:30.113Z,0.00
2019-04-29T03:28:30.091Z,0.00
2019-04-29T03:29:30.115Z,0.00
2019-04-29T03:30:30.079Z,0.00
2019-04-29T03:31:30.033Z,0.00
2019-04-29T03:32:30.069Z,0.00
2019-04-29T03:33:30.005Z,0.00
2019-04-29T03:34:29.988Z,4.00
2019-04-29T03:35:29.947Z,4.00
2019-04-29T03:36:29.927Z,4.00
2019-04-29T03:37:29.908Z,0.00
2019-04-29T03:38:29.888Z,4.00
2019-04-29T03:39:29.868Z,4.00
2019-04-29T03:40:29.908Z,4.00
2019-04-29T03:41:29.825Z,4.00
2019-04-29T03:42:29.803Z,8.00
2019-04-29T03:43:29.791Z,4.00
2019-04-29T03:44:29.762Z,8.00
2019-04-29T03:45:29.745Z,8.00
2019-04-29T03:46:29.725Z,8.00
2019-04-29T03:47:29.701Z,12.00
2019-04-29T03:48:29.711Z,16.00
2019-04-29T03:49:29.699Z,16.00
2019-04-29T03:50:29.649Z,20.00
2019-04-29T03:51:29.627Z,20.00
2019-04-29T03:52:29.604Z,20.00
2019-04-29T03:53:29.582Z,24.00
2019-04-29T03:54:29.564Z,28.00
2019-04-29T03:55:39.132Z,32.00
2019-04-29T03:56:29.514Z,36.00
2019-04-29T03:57:29.506Z,40.00
2019-04-29T03:58:29.481Z,44.00
2019-04-29T03:59:29.457Z,48.00
2019-04-29T04:00:29.647Z,52.00
2019-04-29T04:01:29.635Z,60.00
2019-04-29T04:02:29.407Z,64.00
2019-04-29T04:03:29.379Z,72.00
2019-04-29T04:04:29.355Z,76.00
2019-04-29T04:05:29.330Z,84.00
2019-04-29T04:06:29.317Z,92.00
2019-04-29T04:07:29.290Z,100.00
2019-04-29T04:08:29.271Z,108.00
2019-04-29T04:09:29.259Z,116.00
2019-04-29T04:10:29.227Z,124.00
2019-04-29T04:11:29.234Z,136.00
2019-04-29T04:12:29.243Z,148.00
2019-04-29T04:13:29.163Z,160.00
2019-04-29T04:14:29.141Z,176.00
2019-04-29T04:15:29.142Z,192.00
2019-04-29T04:16:29.129Z,208.00
2019-04-29T04:17:29.083Z,220.00
2019-04-29T04:18:29.065Z,236.00
2019-04-29T04:19:29.044Z,248.00
2019-04-29T04:20:29.030Z,264.00
2019-04-29T04:21:28.999Z,276.00
2019-04-29T04:22:28.989Z,292.00
2019-04-29T04:23:28.963Z,304.00
2019-04-29T04:24:28.938Z,316.00
2019-04-29T04:25:28.918Z,332.00
2019-04-29T04:26:28.896Z,348.00
2019-04-29T04:27:28.879Z,360.00
2019-04-29T04:28:28.859Z,376.00
2019-04-29T04:29:28.882Z,388.00
2019-04-29T04:30:28.821Z,400.00
2019-04-29T04:31:28.800Z,412.00
2019-04-29T04:32:28.774Z,428.00
2019-04-29T04:33:28.765Z,444.00
2019-04-29T04:34:28.734Z,464.00
2019-04-29T04:35:28.725Z,476.00
2019-04-29T04:36:28.692Z,496.00
2019-04-29T04:37:28.683Z,516.00
2019-04-29T04:38:28.651Z,544.00
2019-04-29T04:39:28.631Z,568.00
2019-04-29T04:40:28.609Z,600.00
2019-04-29T04:41:28.583Z,628.00
2019-04-29T04:42:30.060Z,652.00
2019-04-29T04:43:28.548Z,676.00
2019-04-29T04:44:28.530Z,696.00
2019-04-29T04:45:28.505Z,724.00
2019-04-29T04:46:28.484Z,764.00
2019-04-29T04:47:28.465Z,804.00
2019-04-29T04:48:28.444Z,848.00
2019-04-29T04:49:28.428Z,892.00
2019-04-29T04:50:28.403Z,924.00
2019-04-29T04:51:28.395Z,952.00
2019-04-29T04:52:28.386Z,988.00
2019-04-29T04:53:28.344Z,1016.00
2019-04-29T04:54:31.290Z,1040.00
2019-04-29T04:55:28.299Z,1064.00
2019-04-29T04:56:28.286Z,1084.00
2019-04-29T04:57:28.264Z,1088.00
2019-04-29T04:58:28.239Z,1084.00
2019-04-29T04:59:28.219Z,1088.00
2019-04-29T05:00:28.210Z,1084.00
2019-04-29T05:01:28.184Z,1092.00
2019-04-29T05:02:28.155Z,1104.00
2019-04-29T05:03:28.139Z,1108.00
2019-04-29T05:04:28.114Z,1108.00
2019-04-29T05:05:28.117Z,1116.00
2019-04-29T05:06:28.076Z,1128.00
2019-04-29T05:07:28.053Z,1160.00
2019-04-29T05:08:28.038Z,1196.00
2019-04-29T05:09:28.018Z,1236.00
2019-04-29T05:10:27.992Z,1276.00
2019-04-29T05:11:27.973Z,1320.00
2019-04-29T05:12:27.952Z,1360.00
2019-04-29T05:13:28.776Z,1396.00
2019-04-29T05:14:27.913Z,1420.00
2019-04-29T05:15:27.890Z,1436.00
2019-04-29T05:16:27.881Z,1436.00
2019-04-29T05:17:27.851Z,1440.00
2019-04-29T05:18:27.833Z,1452.00
2019-04-29T05:19:27.823Z,1476.00
2019-04-29T05:20:27.793Z,1512.00
2019-04-29T05:21:27.772Z,1548.00
2019-04-29T05:22:27.757Z,1604.00
2019-04-29T05:23:27.729Z,1668.00
2019-04-29T05:24:27.709Z,1728.00
2019-04-29T05:25:27.689Z,1792.00
2019-04-29T05:26:27.669Z,1868.00
2019-04-29T05:27:27.653Z,1932.00
2019-04-29T05:28:27.629Z,1992.00
2019-04-29T05:29:28.769Z,2048.00
2019-04-29T05:30:27.597Z,2100.00
2019-04-29T05:31:27.581Z,2144.00
2019-04-29T05:32:27.553Z,2180.00
2019-04-29T05:33:27.537Z,2208.00
2019-04-29T05:34:27.513Z,2232.00
2019-04-29T05:35:27.490Z,2268.00
2019-04-29T05:36:27.474Z,2300.00
2019-04-29T05:37:27.448Z,2324.00
2019-04-29T05:38:27.432Z,2360.00
2019-04-29T05:39:27.408Z,2392.00
2019-04-29T05:40:27.393Z,2432.00
2019-04-29T05:41:30.204Z,2472.00
2019-04-29T05:42:27.350Z,2504.00
2019-04-29T05:43:32.020Z,2516.00
2019-04-29T05:44:27.311Z,2532.00
2019-04-29T05:45:27.290Z,2560.00
2019-04-29T05:46:27.273Z,2588.00
2019-04-29T05:47:27.256Z,2624.00
2019-04-29T05:48:27.640Z,2688.00
2019-04-29T05:49:27.213Z,2776.00
2019-04-29T05:50:27.194Z,2900.00
2019-04-29T05:51:28.443Z,3056.00
2019-04-29T05:52:29.964Z,3232.00
2019-04-29T05:53:27.138Z,3408.00
2019-04-29T05:54:31.567Z,3552.00
2019-04-29T05:55:27.150Z,3700.00
2019-04-29T05:56:27.082Z,3860.00
2019-04-29T05:57:27.122Z,3912.00
2019-04-29T05:58:27.042Z,3816.00
2019-04-29T05:59:27.021Z,3716.00
2019-04-29T06:00:27.001Z,3624.00
2019-04-29T06:01:26.991Z,3572.00
2019-04-29T06:02:33.258Z,3532.00
2019-04-29T06:03:26.955Z,3468.00
2019-04-29T06:04:28.632Z,3504.00
2019-04-29T06:05:26.906Z,3592.00
2019-04-29T06:06:26.888Z,3692.00
2019-04-29T06:07:27.052Z,3852.00
2019-04-29T06:08:26.850Z,3960.00
2019-04-29T06:09:26.829Z,4076.00
2019-04-29T06:10:26.811Z,4172.00
2019-04-29T06:11:26.793Z,4356.00
2019-04-29T06:12:26.769Z,4552.00
2019-04-29T06:13:26.748Z,4696.00
2019-04-29T06:14:26.731Z,4880.00
2019-04-29T06:15:26.722Z,4976.00
2019-04-29T06:16:26.695Z,5144.00
2019-04-29T06:17:26.675Z,5384.00
2019-04-29T06:18:26.654Z,5640.00
2019-04-29T06:19:26.639Z,5896.00
2019-04-29T06:20:26.617Z,6004.00
2019-04-29T06:21:26.599Z,6216.00
2019-04-29T06:22:26.587Z,6340.00
2019-04-29T06:23:26.562Z,6408.00
2019-04-29T06:24:26.543Z,6460.00
2019-04-29T06:25:26.532Z,6524.00
2019-04-29T06:26:26.512Z,6532.00
2019-04-29T06:27:26.495Z,6624.00
2019-04-29T06:28:28.155Z,6708.00
2019-04-29T06:29:26.452Z,6848.00
2019-04-29T06:30:26.434Z,6888.00
2019-04-29T06:31:26.414Z,6992.00
2019-04-29T06:32:26.513Z,7132.00
2019-04-29T06:33:29.213Z,7208.00
2019-04-29T06:34:26.360Z,7252.00
2019-04-29T06:35:26.344Z,7224.00
2019-04-29T06:36:26.324Z,7112.00
2019-04-29T06:37:26.305Z,6980.00
2019-04-29T06:38:26.298Z,6808.00
2019-04-29T06:39:26.272Z,6620.00
2019-04-29T06:40:26.252Z,6472.00
2019-04-29T06:41:26.236Z,6452.00
2019-04-29T06:42:26.222Z,6544.00
2019-04-29T06:43:28.925Z,6596.00
2019-04-29T06:44:26.182Z,6640.00
2019-04-29T06:45:26.173Z,6716.00
2019-04-29T06:46:26.145Z,6808.00
2019-04-29T06:47:26.130Z,6916.00
2019-04-29T06:48:26.110Z,7012.00
2019-04-29T06:49:26.098Z,7204.00
2019-04-29T06:50:26.087Z,7468.00
2019-04-29T06:51:26.060Z,7612.00
2019-04-29T06:52:26.045Z,7648.00
2019-04-29T06:53:26.024Z,7680.00
2019-04-29T06:54:26.006Z,7848.00
2019-04-29T06:55:25.988Z,7976.00
2019-04-29T06:56:25.971Z,8204.00
2019-04-29T06:57:25.954Z,8456.00
2019-04-29T06:58:25.934Z,8740.00
2019-04-29T06:59:25.929Z,9016.00
2019-04-29T07:00:25.903Z,9040.00
2019-04-29T07:01:25.890Z,10016.00
2019-04-29T07:02:25.867Z,10644.00
2019-04-29T07:03:26.719Z,11180.00
2019-04-29T07:04:25.836Z,11056.00
2019-04-29T07:05:25.817Z,11340.00
2019-04-29T07:06:25.800Z,11348.00
2019-04-29T07:07:25.786Z,11172.00
2019-04-29T07:08:25.769Z,11160.00
2019-04-29T07:09:25.749Z,11560.00
2019-04-29T07:10:27.003Z,11584.00
2019-04-29T07:11:25.717Z,11068.00
2019-04-29T07:12:25.701Z,10636.00
2019-04-29T07:13:25.692Z,10636.00
2019-04-29T07:14:28.343Z,10980.00
2019-04-29T07:15:25.651Z,11376.00
2019-04-29T07:16:27.212Z,12372.00
2019-04-29T07:17:25.622Z,13316.00
2019-04-29T07:18:25.611Z,14716.00
2019-04-29T07:19:26.567Z,15236.00
2019-04-29T07:20:25.571Z,14080.00
2019-04-29T07:21:25.562Z,14348.00
2019-04-29T07:22:26.077Z,15796.00
2019-04-29T07:23:25.523Z,17408.00
2019-04-29T07:24:25.510Z,26048.00
2019-04-29T07:25:28.704Z,21600.00
2019-04-29T07:26:25.480Z,33824.00
2019-04-29T07:27:25.465Z,38592.00
2019-04-29T07:28:25.450Z,46848.00
2019-04-29T07:29:29.938Z,39744.00
2019-04-29T07:30:25.420Z,35616.00
2019-04-29T07:31:28.322Z,24096.00
2019-04-29T07:32:25.392Z,23200.00
2019-04-29T07:33:25.377Z,19040.00
2019-04-29T07:34:29.010Z,29664.00
2019-04-29T07:35:25.365Z,21792.00
2019-04-29T07:36:25.340Z,65248.00
2019-04-29T07:37:25.332Z,40288.00
2019-04-29T07:38:25.320Z,28576.00
2019-04-29T07:39:26.822Z,31552.00
2019-04-29T07:40:25.298Z,73984.00
2019-04-29T07:41:25.284Z,50688.00
2019-04-29T07:42:31.915Z,60224.00
2019-04-29T07:43:25.259Z,67552.00
2019-04-29T07:44:25.241Z,76416.00
2019-04-29T07:45:28.229Z,75680.00
2019-04-29T07:46:25.221Z,72256.00
2019-04-29T07:47:29.521Z,75072.00
2019-04-29T07:48:25.202Z,70528.00
2019-04-29T07:49:25.190Z,70592.00
2019-04-29T07:50:26.754Z,75488.00
2019-04-29T07:51:25.178Z,74208.00
2019-04-29T07:52:25.173Z,71552.00
2019-04-29T07:53:34.328Z,69728.00
2019-04-29T07:54:25.153Z,73088.00
2019-04-29T07:55:26.029Z,74848.00
2019-04-29T07:56:25.143Z,71488.00
2019-04-29T07:57:25.133Z,68640.00
2019-04-29T07:58:27.303Z,67104.00
2019-04-29T07:59:25.124Z,66976.00
2019-04-29T08:00:25.119Z,66240.00
2019-04-29T08:01:26.400Z,63872.00
2019-04-29T08:02:25.112Z,61632.00
2019-04-29T08:03:25.104Z,65888.00
2019-04-29T08:04:25.104Z,69344.00
2019-04-29T08:05:25.097Z,72064.00
2019-04-29T08:06:25.097Z,75456.00
2019-04-29T08:07:25.086Z,73728.00
2019-04-29T08:08:25.085Z,71296.00
2019-04-29T08:09:25.081Z,67968.00
2019-04-29T08:10:28.634Z,61632.00
2019-04-29T08:11:25.117Z,63104.00
2019-04-29T08:12:25.071Z,63936.00
2019-04-29T08:13:25.066Z,67104.00
2019-04-29T08:14:25.064Z,67808.00
2019-04-29T08:15:25.063Z,64640.00
2019-04-29T08:16:25.061Z,65568.00
2019-04-29T08:17:25.060Z,65792.00
2019-04-29T08:18:25.051Z,64736.00
2019-04-29T08:19:29.409Z,60672.00
2019-04-29T08:20:25.046Z,62080.00
2019-04-29T08:21:25.043Z,63136.00
2019-04-29T08:22:27.674Z,61664.00
2019-04-29T08:23:25.038Z,63040.00
2019-04-29T08:24:25.037Z,65088.00
2019-04-29T08:25:26.082Z,68704.00
2019-04-29T08:26:25.030Z,69088.00
2019-04-29T08:27:25.025Z,66944.00
2019-04-29T08:28:25.023Z,69984.00
2019-04-29T08:29:25.025Z,69024.00
2019-04-29T08:30:25.018Z,67680.00
2019-04-29T08:31:25.029Z,69056.00
2019-04-29T08:32:25.013Z,63968.00
2019-04-29T08:33:25.011Z,71872.00
2019-04-29T08:34:25.008Z,73856.00
2019-04-29T08:35:25.023Z,78272.00
2019-04-29T08:36:25.006Z,77184.00
2019-04-29T08:37:25.094Z,63232.00
2019-04-29T08:38:25.018Z,69568.00
2019-04-29T08:39:28.890Z,69408.00
2019-04-29T08:40:24.997Z,73376.00
2019-04-29T08:41:28.853Z,76832.00
2019-04-29T08:42:24.997Z,78464.00
2019-04-29T08:43:24.989Z,77888.00
2019-04-29T08:44:24.990Z,78336.00
2019-04-29T08:45:24.991Z,77280.00
2019-04-29T08:46:24.997Z,73376.00
2019-04-29T08:47:30.426Z,49760.00
2019-04-29T08:48:24.988Z,70912.00
2019-04-29T08:49:24.983Z,51648.00
2019-04-29T08:50:24.981Z,55424.00
2019-04-29T08:51:24.984Z,42112.00
2019-04-29T08:52:24.979Z,43040.00
2019-04-29T08:53:24.974Z,46432.00
2019-04-29T08:54:24.971Z,39104.00
2019-04-29T08:55:26.697Z,44960.00
2019-04-29T08:56:24.967Z,73152.00
2019-04-29T08:57:24.966Z,72320.00
2019-04-29T08:58:24.959Z,73248.00
2019-04-29T08:59:25.829Z,70464.00
2019-04-29T09:00:24.956Z,70944.00
2019-04-29T09:01:29.168Z,73824.00
2019-04-29T09:02:34.569Z,76960.00
2019-04-29T09:03:39.384Z,35200.00
2019-04-29T09:04:28.521Z,65376.00
2019-04-29T09:05:24.946Z,33888.00
2019-04-29T09:06:27.845Z,51232.00
2019-04-29T09:07:24.931Z,10236.00
2019-04-29T09:08:28.894Z,8988.00
2019-04-29T09:09:29.199Z,10560.00
2019-04-29T09:10:24.917Z,39808.00
2019-04-29T09:11:24.914Z,11852.00
2019-04-29T09:12:29.012Z,15468.00
2019-04-29T09:13:24.901Z,26304.00
2019-04-29T09:14:24.896Z,14440.00
2019-04-29T09:15:24.895Z,22144.00
2019-04-29T09:16:24.883Z,9160.00
2019-04-29T09:17:24.879Z,37568.00
2019-04-29T09:18:24.878Z,14948.00
2019-04-29T09:19:24.866Z,12200.00
2019-04-29T09:20:24.861Z,8976.00
2019-04-29T09:21:24.845Z,10440.00
2019-04-29T09:22:24.850Z,10512.00
2019-04-29T09:23:24.831Z,9244.00
2019-04-29T09:24:24.824Z,7940.00
2019-04-29T09:25:26.109Z,7136.00
2019-04-29T09:26:24.807Z,6792.00
2019-04-29T09:27:24.805Z,7208.00
2019-04-29T09:28:27.958Z,12168.00
2019-04-29T09:29:24.780Z,11420.00
2019-04-29T09:30:24.770Z,10684.00
2019-04-29T09:31:24.766Z,10844.00
2019-04-29T09:32:24.755Z,10020.00
2019-04-29T09:33:24.747Z,9784.00
2019-04-29T09:34:26.429Z,12456.00
2019-04-29T09:35:24.723Z,11252.00
2019-04-29T09:36:24.708Z,9616.00
2019-04-29T09:37:24.705Z,11792.00
2019-04-29T09:38:24.688Z,15140.00
2019-04-29T09:39:24.680Z,15248.00
2019-04-29T09:40:24.671Z,17536.00
2019-04-29T09:41:24.665Z,17056.00
2019-04-29T09:42:24.645Z,17312.00
2019-04-29T09:43:25.861Z,17024.00
2019-04-29T09:44:24.650Z,17152.00
2019-04-29T09:45:24.644Z,17856.00
2019-04-29T09:46:24.603Z,16288.00
2019-04-29T09:47:24.596Z,16160.00
2019-04-29T09:48:24.587Z,13932.00
2019-04-29T09:49:24.575Z,12512.00
2019-04-29T09:50:24.571Z,11584.00
2019-04-29T09:51:27.810Z,10992.00
2019-04-29T09:52:24.543Z,10692.00
2019-04-29T09:53:24.540Z,10136.00
2019-04-29T09:54:24.524Z,9216.00
2019-04-29T09:55:24.512Z,9124.00
2019-04-29T09:56:24.520Z,9440.00
2019-04-29T09:57:24.491Z,8840.00
2019-04-29T09:58:24.485Z,8416.00
2019-04-29T09:59:24.477Z,8668.00
2019-04-29T10:00:24.463Z,9632.00
2019-04-29T10:01:24.452Z,8176.00
2019-04-29T10:02:26.518Z,7972.00
2019-04-29T10:03:24.426Z,8144.00
2019-04-29T10:04:24.415Z,8104.00
2019-04-29T10:05:24.406Z,7744.00
2019-04-29T10:06:24.391Z,8544.00
2019-04-29T10:07:24.392Z,9068.00
2019-04-29T10:08:24.378Z,8580.00
2019-04-29T10:09:24.393Z,8072.00
2019-04-29T10:10:24.346Z,7516.00
2019-04-29T10:11:24.335Z,7344.00
2019-04-29T10:12:24.332Z,7240.00
2019-04-29T10:13:24.310Z,7268.00
2019-04-29T10:14:24.300Z,7304.00
2019-04-29T10:15:24.297Z,7248.00
2019-04-29T10:16:24.276Z,7224.00
2019-04-29T10:17:24.270Z,7348.00
2019-04-29T10:18:25.066Z,7472.00
2019-04-29T10:19:24.238Z,7704.00
2019-04-29T10:20:24.228Z,8040.00
2019-04-29T10:21:24.222Z,8080.00
2019-04-29T10:22:24.203Z,8052.00
2019-04-29T10:23:24.192Z,7884.00
2019-04-29T10:24:24.180Z,7772.00
2019-04-29T10:25:24.168Z,7736.00
2019-04-29T10:26:24.155Z,7632.00
2019-04-29T10:27:24.145Z,7496.00
2019-04-29T10:28:24.138Z,7432.00
2019-04-29T10:29:25.844Z,7344.00
2019-04-29T10:30:26.827Z,7340.00
2019-04-29T10:31:24.093Z,7460.00
2019-04-29T10:32:24.084Z,7640.00
2019-04-29T10:33:24.106Z,7776.00
2019-04-29T10:34:27.057Z,7940.00
2019-04-29T10:35:24.044Z,8072.00
2019-04-29T10:36:26.194Z,8276.00
2019-04-29T10:37:31.487Z,8520.00
2019-04-29T10:38:24.006Z,8824.00
2019-04-29T10:39:24.241Z,9100.00
2019-04-29T10:40:23.987Z,9448.00
2019-04-29T10:41:23.970Z,9596.00
2019-04-29T10:42:23.962Z,9360.00
2019-04-29T10:43:23.945Z,9180.00
2019-04-29T10:44:23.932Z,9284.00
2019-04-29T10:45:23.924Z,9296.00
2019-04-29T10:46:23.907Z,9512.00
2019-04-29T10:47:23.897Z,9756.00
2019-04-29T10:48:23.885Z,9840.00
2019-04-29T10:49:23.871Z,9824.00
2019-04-29T10:50:23.962Z,9780.00
2019-04-29T10:51:27.353Z,9860.00
2019-04-29T10:52:23.838Z,9540.00
2019-04-29T10:53:23.824Z,9348.00
2019-04-29T10:54:23.810Z,9340.00
2019-04-29T10:55:25.509Z,9316.00
2019-04-29T10:56:23.787Z,9520.00
2019-04-29T10:57:23.774Z,9512.00
2019-04-29T10:58:30.182Z,9772.00
2019-04-29T10:59:35.359Z,9572.00
2019-04-29T11:03:25.066Z,8808.00
2019-04-29T11:04:23.691Z,8320.00
2019-04-29T11:05:23.681Z,8024.00
2019-04-29T11:06:23.672Z,7932.00
2019-04-29T11:07:26.470Z,8176.00
2019-04-29T11:08:23.644Z,8416.00
2019-04-29T11:09:23.635Z,8608.00
2019-04-29T11:10:25.353Z,8424.00
2019-04-29T11:11:27.079Z,8540.00
2019-04-29T11:12:23.596Z,8708.00
2019-04-29T11:13:24.815Z,8960.00
2019-04-29T11:14:24.841Z,9248.00
2019-04-29T11:15:23.558Z,9504.00
2019-04-29T11:16:27.544Z,9668.00
2019-04-29T11:17:23.533Z,9668.00
2019-04-29T11:18:25.075Z,9940.00
2019-04-29T11:19:23.573Z,11132.00
2019-04-29T11:20:23.506Z,11284.00
2019-04-29T11:21:24.990Z,11572.00
2019-04-29T11:22:23.475Z,10968.00
2019-04-29T11:23:23.462Z,12128.00
2019-04-29T11:24:23.450Z,13308.00
2019-04-29T11:25:23.441Z,11692.00
2019-04-29T11:26:23.428Z,10244.00
2019-04-29T11:27:23.415Z,9140.00
2019-04-29T11:28:23.405Z,9076.00
2019-04-29T11:29:27.307Z,9536.00
2019-04-29T11:30:23.382Z,9500.00
2019-04-29T11:34:23.341Z,10280.00
2019-04-29T11:35:24.496Z,9504.00
2019-04-29T11:36:23.311Z,10120.00
2019-04-29T11:37:24.086Z,9904.00
2019-04-29T11:38:23.289Z,8724.00
2019-04-29T11:39:23.273Z,9060.00
2019-04-29T11:40:26.018Z,8016.00
2019-04-29T11:41:23.256Z,8688.00
2019-04-29T11:42:23.242Z,9920.00
2019-04-29T11:43:23.228Z,9528.00
2019-04-29T11:44:26.543Z,9040.00
2019-04-29T11:45:23.237Z,8424.00
2019-04-29T11:46:23.194Z,8632.00
2019-04-29T11:47:25.161Z,9392.00
2019-04-29T11:48:23.172Z,8452.00
2019-04-29T11:49:23.162Z,8476.00
2019-04-29T11:50:23.148Z,7500.00
2019-04-29T11:51:23.147Z,6944.00
2019-04-29T11:52:23.763Z,6620.00
2019-04-29T11:53:23.113Z,6544.00
2019-04-29T11:54:23.112Z,6560.00
2019-04-29T11:55:23.091Z,7372.00
2019-04-29T11:56:23.081Z,9224.00
2019-04-29T11:57:23.067Z,9892.00
2019-04-29T11:58:23.055Z,8952.00
2019-04-29T11:59:23.142Z,9764.00
2019-04-29T12:00:23.044Z,10140.00
2019-04-29T12:01:37.492Z,10724.00
2019-04-29T12:02:42.256Z,10428.00
2019-04-29T12:03:23.014Z,8036.00
2019-04-29T12:04:22.987Z,8644.00
2019-04-29T12:05:23.000Z,6488.00
2019-04-29T12:06:22.968Z,6156.00
2019-04-29T12:07:22.966Z,6208.00
2019-04-29T12:08:22.946Z,7452.00
2019-04-29T12:09:25.389Z,7992.00
2019-04-29T12:10:22.922Z,8100.00
2019-04-29T12:11:22.910Z,8724.00
2019-04-29T12:12:22.897Z,8132.00
2019-04-29T12:13:27.175Z,7704.00
2019-04-29T12:14:22.874Z,8292.00
2019-04-29T12:15:22.861Z,7980.00
2019-04-29T12:16:24.658Z,6956.00
2019-04-29T12:17:22.838Z,7220.00
2019-04-29T12:18:22.826Z,8636.00
2019-04-29T12:19:22.820Z,9804.00
2019-04-29T12:20:22.802Z,11132.00
2019-04-29T12:21:25.445Z,10912.00
2019-04-29T12:22:30.219Z,11392.00
2019-04-29T12:23:22.767Z,9668.00
2019-04-29T12:24:22.763Z,10652.00
2019-04-29T12:25:22.928Z,11292.00
2019-04-29T12:26:22.733Z,11468.00
2019-04-29T12:27:22.818Z,8608.00
2019-04-29T12:28:22.715Z,10364.00
2019-04-29T12:29:22.698Z,11668.00
2019-04-29T12:30:22.699Z,11160.00